createdAt,value
2019-04-23T00:01:28.469Z,7.27
2019-04-23T00:04:03.747Z,6.93
2019-04-23T00:06:48.903Z,7.13
2019-04-23T00:09:07.675Z,6.40
2019-04-23T00:11:35.748Z,6.37
2019-04-23T00:13:58.046Z,7.40
2019-04-23T00:16:30.176Z,6.87
2019-04-23T00:18:49.470Z,6.87
2019-04-23T00:24:54.853Z,7.10
2019-04-23T00:27:08.752Z,6.90
2019-04-23T00:29:32.781Z,7.13
2019-04-23T00:31:59.809Z,7.20
2019-04-23T00:34:30.004Z,6.77
2019-04-23T00:37:01.658Z,7.30
2019-04-23T00:39:23.780Z,7.03
2019-04-23T00:41:50.712Z,7.50
2019-04-23T00:44:24.121Z,7.87
2019-04-23T00:46:50.807Z,6.73
2019-04-23T00:49:19.890Z,7.63
2019-04-23T00:51:50.207Z,6.77
2019-04-23T00:54:22.545Z,7.40
2019-04-23T00:59:12.724Z,7.03
2019-04-23T01:01:49.661Z,6.93
2019-04-23T01:04:12.240Z,6.97
2019-04-23T01:06:47.632Z,7.47
2019-04-23T01:09:10.425Z,7.47
2019-04-23T01:11:38.937Z,6.80
2019-04-23T01:14:11.453Z,7.20
2019-04-23T01:16:38.190Z,7.50
2019-04-23T01:19:08.702Z,7.20
2019-04-23T01:21:28.467Z,7.30
2019-04-23T01:24:17.902Z,7.80
2019-04-23T01:27:39.034Z,8.60
2019-04-23T01:30:00.045Z,7.03
2019-04-23T01:32:23.553Z,8.30
2019-04-23T01:35:05.142Z,7.60
2019-04-23T01:37:19.233Z,7.37
2019-04-23T01:39:56.175Z,8.43
2019-04-23T01:42:29.347Z,7.43
2019-04-23T01:44:57.337Z,8.00
2019-04-23T01:47:17.305Z,7.93
2019-04-23T01:49:59.150Z,7.93
2019-04-23T01:52:16.372Z,8.97
2019-04-23T01:54:45.263Z,8.17
2019-04-23T01:57:18.135Z,7.97
2019-04-23T01:59:45.883Z,8.73
2019-04-23T02:02:14.292Z,8.60
2019-04-23T02:04:34.930Z,8.00
2019-04-23T02:07:15.926Z,9.23
2019-04-23T02:09:43.445Z,7.80
2019-04-23T02:12:04.138Z,8.23
2019-04-23T02:14:34.804Z,8.33
2019-04-23T02:17:00.144Z,8.23
2019-04-23T02:19:38.771Z,7.97
2019-04-23T02:22:18.873Z,9.13
2019-04-23T02:24:41.292Z,8.67
2019-04-23T02:27:12.204Z,8.80
2019-04-23T02:30:00.729Z,8.83
2019-04-23T02:37:18.709Z,8.73
2019-04-23T02:39:57.549Z,8.10
2019-04-23T02:44:35.029Z,9.63
2019-04-23T02:47:17.156Z,8.37
2019-04-23T02:49:43.758Z,8.20
2019-04-23T02:54:51.012Z,8.97
2019-04-23T03:00:05.720Z,9.37
2019-04-23T03:04:55.384Z,8.93
2019-04-23T03:07:33.279Z,8.47
2019-04-23T03:09:45.221Z,8.90
2019-04-23T03:12:15.973Z,9.93
2019-04-23T03:14:41.650Z,10.27
2019-04-23T03:17:37.016Z,9.60
2019-04-23T03:22:56.139Z,9.13
2019-04-23T03:25:31.243Z,9.30
2019-04-23T03:28:16.331Z,9.37
2019-04-23T03:32:01.771Z,10.00
2019-04-23T03:34:04.275Z,9.00
2019-04-23T03:38:23.491Z,9.37
2019-04-23T03:40:46.690Z,9.00
2019-04-23T03:43:14.510Z,7.70
2019-04-23T03:46:03.199Z,8.93
2019-04-23T03:48:17.904Z,8.27
2019-04-23T03:50:43.963Z,8.63
2019-04-23T03:53:03.661Z,8.07
2019-04-23T04:00:51.473Z,9.27
2019-04-23T04:03:42.498Z,7.60
2019-04-23T04:05:47.330Z,8.17
2019-04-23T04:08:18.488Z,8.53
2019-04-23T04:10:42.199Z,8.10
2019-04-23T04:13:11.854Z,9.33
2019-04-23T04:18:11.795Z,8.40
2019-04-23T04:20:33.072Z,7.77
2019-04-23T04:35:22.096Z,7.80
2019-04-23T04:38:25.756Z,7.30
2019-04-23T04:43:09.201Z,8.57
2019-04-23T04:47:44.561Z,6.87
2019-04-23T04:50:26.809Z,7.60
2019-04-23T04:53:10.271Z,8.37
2019-04-23T04:55:21.280Z,7.50
2019-04-23T05:00:23.547Z,7.57
2019-04-23T05:03:04.326Z,7.47
2019-04-23T05:05:38.026Z,7.43
2019-04-23T05:07:48.388Z,7.53
2019-04-23T05:10:21.638Z,7.10
2019-04-23T05:17:57.278Z,6.80
2019-04-23T05:20:17.015Z,6.97
2019-04-23T05:22:52.711Z,7.00
2019-04-23T05:25:05.578Z,7.97
2019-04-23T05:27:53.742Z,7.97
2019-04-23T05:30:18.152Z,7.23
2019-04-23T05:32:41.682Z,7.20
2019-04-23T05:35:16.885Z,7.03
2019-04-23T05:37:50.592Z,7.20
2019-04-23T05:40:22.382Z,7.27
2019-04-23T05:42:39.850Z,7.47
2019-04-23T05:45:00.775Z,7.07
2019-04-23T05:47:50.563Z,7.60
2019-04-23T05:50:12.770Z,7.90
2019-04-23T05:55:01.519Z,6.83
2019-04-23T05:57:28.571Z,7.23
2019-04-23T05:59:54.868Z,7.20
2019-04-23T06:02:26.219Z,6.73
2019-04-23T06:04:57.269Z,7.50
2019-04-23T06:12:22.029Z,7.43
2019-04-23T06:14:53.776Z,7.40
2019-04-23T06:17:34.012Z,7.17
2019-04-23T06:19:52.948Z,7.23
2019-04-23T06:22:23.472Z,6.97
2019-04-23T06:24:46.743Z,6.70
2019-04-23T06:27:18.248Z,6.60
2019-04-23T06:29:44.701Z,6.63
2019-04-23T06:32:21.035Z,6.77
2019-04-23T06:34:43.624Z,6.37
2019-04-23T06:37:10.504Z,6.33
2019-04-23T06:39:44.568Z,7.23
2019-04-23T06:42:08.141Z,6.90
2019-04-23T06:44:58.427Z,7.17
2019-04-23T06:47:09.340Z,5.90
2019-04-23T06:54:43.179Z,6.43
2019-04-23T06:57:14.666Z,6.30
2019-04-23T06:59:35.764Z,6.50
2019-04-23T07:02:15.003Z,5.97
2019-04-23T07:07:25.645Z,6.17
2019-04-23T07:09:27.452Z,5.60
2019-04-23T07:11:55.178Z,6.03
2019-04-23T07:14:35.828Z,7.07
2019-04-23T07:16:59.197Z,6.80
2019-04-23T07:19:30.226Z,6.57
2019-04-23T07:22:08.110Z,6.03
2019-04-23T07:24:21.757Z,5.57
2019-04-23T07:26:49.354Z,6.30
2019-04-23T07:29:25.420Z,6.13
2019-04-23T07:31:54.570Z,6.07
2019-04-23T07:34:20.433Z,6.40
2019-04-23T07:36:55.721Z,5.80
2019-04-23T07:44:51.954Z,6.33
2019-04-23T07:47:20.499Z,5.37
2019-04-23T07:50:03.784Z,5.63
2019-04-23T07:52:23.951Z,6.20
2019-04-23T07:54:58.789Z,6.27
2019-04-23T07:59:50.303Z,5.90
2019-04-23T08:02:19.408Z,5.80
2019-04-23T08:04:56.566Z,5.80
2019-04-23T08:07:14.624Z,5.43
2019-04-23T08:12:23.806Z,4.97
2019-04-23T08:14:40.887Z,5.57
2019-04-23T08:17:04.032Z,5.63
2019-04-23T08:19:42.469Z,5.43
2019-04-23T08:22:12.697Z,5.47
2019-04-23T08:24:45.374Z,5.10
2019-04-23T08:27:14.156Z,6.57
2019-04-23T08:29:30.442Z,5.67
2019-04-23T08:34:48.401Z,5.03
2019-04-23T08:37:09.240Z,6.57
2019-04-23T08:39:38.315Z,5.13
2019-04-23T08:44:46.078Z,6.00
2019-04-23T08:49:53.662Z,5.13
2019-04-23T08:52:14.841Z,4.80
2019-04-23T08:54:48.252Z,4.77
2019-04-23T08:57:10.650Z,5.43
2019-04-23T08:59:53.858Z,5.10
2019-04-23T09:02:24.226Z,5.20
2019-04-23T09:04:39.961Z,4.63
2019-04-23T09:07:11.337Z,4.83
2019-04-23T09:09:34.714Z,6.30
2019-04-23T09:12:01.255Z,4.93
2019-04-23T09:14:32.202Z,4.73
2019-04-23T09:17:09.814Z,4.80
2019-04-23T09:19:32.362Z,5.20
2019-04-23T09:22:07.212Z,5.50
2019-04-23T09:24:29.535Z,5.23
2019-04-23T09:26:59.013Z,4.63
2019-04-23T09:29:30.187Z,5.10
2019-04-23T09:32:20.894Z,4.73
2019-04-23T09:34:45.124Z,4.90
2019-04-23T09:37:21.990Z,4.97
2019-04-23T09:39:59.512Z,4.53
2019-04-23T09:42:47.886Z,4.97
2019-04-23T09:45:14.521Z,4.10
2019-04-23T09:48:08.583Z,4.60
2019-04-23T09:50:50.332Z,5.80
2019-04-23T09:53:09.765Z,4.50
2019-04-23T09:55:33.389Z,5.10
2019-04-23T09:58:05.999Z,4.30
2019-04-23T10:02:53.406Z,4.83
2019-04-23T10:05:19.485Z,4.40
2019-04-23T10:07:44.244Z,4.83
2019-04-23T10:10:05.303Z,4.90
2019-04-23T10:12:32.507Z,3.67
2019-04-23T10:15:09.424Z,5.83
2019-04-23T10:17:28.589Z,4.10
2019-04-23T10:19:55.782Z,5.07
2019-04-23T10:22:23.091Z,4.03
2019-04-23T10:24:50.886Z,4.17
2019-04-23T10:27:18.912Z,4.87
2019-04-23T10:29:47.741Z,4.87
2019-04-23T10:32:15.804Z,4.73
2019-04-23T10:34:54.226Z,4.47
2019-04-23T10:37:13.581Z,4.60
2019-04-23T10:39:43.721Z,4.97
2019-04-23T10:42:11.961Z,4.80
2019-04-23T10:44:43.889Z,4.77
2019-04-23T10:48:03.099Z,3.87
2019-04-23T10:50:46.095Z,4.73
2019-04-23T10:53:26.872Z,3.73
2019-04-23T10:55:46.781Z,3.77
2019-04-23T10:58:11.839Z,3.80
2019-04-23T11:00:38.779Z,4.40
2019-04-23T11:03:21.659Z,4.37
2019-04-23T11:05:46.219Z,4.27
2019-04-23T11:08:08.135Z,5.07
2019-04-23T11:10:37.672Z,4.40
2019-04-23T11:13:00.576Z,4.70
2019-04-23T11:15:50.204Z,5.23
2019-04-23T11:17:59.305Z,4.00
2019-04-23T11:20:41.583Z,4.83
2019-04-23T11:22:56.808Z,5.67
2019-04-23T11:25:34.925Z,4.67
2019-04-23T11:28:11.825Z,4.70
2019-04-23T11:30:41.450Z,4.73
2019-04-23T11:33:10.094Z,4.60
2019-04-23T11:35:40.105Z,5.00
2019-04-23T11:38:22.143Z,4.63
2019-04-23T11:40:28.234Z,4.10
2019-04-23T11:43:08.263Z,4.90
2019-04-23T11:50:42.861Z,5.37
2019-04-23T11:53:18.426Z,5.67
2019-04-23T12:00:28.498Z,5.37
2019-04-23T12:03:19.321Z,5.27
2019-04-23T12:08:27.827Z,4.73
2019-04-23T12:11:00.554Z,4.60
2019-04-23T12:13:26.990Z,5.07
2019-04-23T12:15:46.330Z,5.83
2019-04-23T12:18:24.034Z,4.67
2019-04-23T12:20:41.610Z,4.43
2019-04-23T12:23:23.799Z,5.03
2019-04-23T12:25:45.669Z,4.47
2019-04-23T12:28:18.036Z,5.63
2019-04-23T12:30:48.626Z,5.50
2019-04-23T12:33:10.580Z,4.53
2019-04-23T12:35:33.823Z,5.60
2019-04-23T12:40:46.587Z,5.60
2019-04-23T12:43:17.462Z,6.23
2019-04-23T12:45:38.831Z,5.67
2019-04-23T12:53:12.291Z,4.43
2019-04-23T12:55:35.894Z,4.97
2019-04-23T12:58:20.163Z,5.73
2019-04-23T13:03:02.627Z,5.63
2019-04-23T13:05:36.079Z,5.37
2019-04-23T13:08:08.290Z,5.17
2019-04-23T13:10:43.941Z,5.17
2019-04-23T13:15:34.646Z,5.63
2019-04-23T13:18:03.287Z,5.57
2019-04-23T13:20:33.577Z,5.17
2019-04-23T13:25:39.960Z,5.27
2019-04-23T13:28:21.706Z,5.80
2019-04-23T13:34:06.957Z,5.10
2019-04-23T13:35:45.445Z,6.00
2019-04-23T13:38:10.221Z,5.33
2019-04-23T13:40:39.310Z,4.93
2019-04-23T13:43:14.519Z,4.90
2019-04-23T13:48:06.315Z,6.93
2019-04-23T13:50:47.553Z,6.10
2019-04-23T13:55:32.433Z,5.60
2019-04-23T13:58:07.490Z,5.23
2019-04-23T14:02:56.017Z,5.33
2019-04-23T14:05:41.574Z,5.30
2019-04-23T14:07:59.681Z,6.10
2019-04-23T14:10:33.800Z,5.13
2019-04-23T14:13:28.585Z,5.10
2019-04-23T14:18:20.936Z,6.30
2019-04-23T14:20:28.063Z,5.50
2019-04-23T14:25:34.512Z,5.67
2019-04-23T14:27:56.520Z,5.70
2019-04-23T14:30:30.031Z,6.93
2019-04-23T14:32:54.322Z,6.77
2019-04-23T14:35:25.759Z,6.70
2019-04-23T14:38:02.586Z,5.43
2019-04-23T14:40:27.333Z,7.10
2019-04-23T14:42:59.992Z,6.97
2019-04-23T14:45:29.584Z,6.17
2019-04-23T14:47:46.366Z,6.20
2019-04-23T14:52:56.986Z,6.27
2019-04-23T14:57:55.526Z,5.93
2019-04-23T15:00:18.227Z,6.33
2019-04-23T15:02:57.200Z,6.60
2019-04-23T15:07:44.311Z,6.40
2019-04-23T15:10:18.721Z,5.80
2019-04-23T15:12:42.538Z,5.73
2019-04-23T15:15:14.366Z,6.80
2019-04-23T15:17:35.604Z,6.47
2019-04-23T15:20:03.473Z,6.43
2019-04-23T15:22:48.100Z,6.00
2019-04-23T15:25:19.449Z,6.77
2019-04-23T15:29:56.458Z,6.27
2019-04-23T15:32:47.267Z,7.33
2019-04-23T15:35:16.597Z,6.90
2019-04-23T15:40:09.576Z,6.80
2019-04-23T15:45:01.281Z,6.67
2019-04-23T15:49:59.581Z,6.67
2019-04-23T15:52:30.031Z,7.10
2019-04-23T15:55:00.548Z,7.63
2019-04-23T15:57:32.451Z,6.73
2019-04-23T16:01:51.633Z,6.83
2019-04-23T16:04:24.135Z,7.67
2019-04-23T16:06:51.929Z,6.80
2019-04-23T16:10:03.187Z,7.30
2019-04-23T16:12:13.125Z,7.53
2019-04-23T16:14:58.524Z,7.77
2019-04-23T16:17:20.979Z,7.70
2019-04-23T16:20:06.122Z,8.40
2019-04-23T16:22:25.080Z,8.67
2019-04-23T16:25:00.987Z,8.00
2019-04-23T16:27:14.966Z,7.70
2019-04-23T16:30:03.560Z,8.27
2019-04-23T16:32:28.149Z,8.50
2019-04-23T16:35:06.757Z,7.30
2019-04-23T16:37:29.208Z,6.83
2019-04-23T16:42:25.203Z,7.97
2019-04-23T16:45:10.997Z,7.57
2019-04-23T16:49:59.124Z,7.60
2019-04-23T16:57:33.276Z,8.43
2019-04-23T17:00:02.879Z,8.13
2019-04-23T17:02:21.434Z,8.60
2019-04-23T17:04:47.733Z,8.47
2019-04-23T17:07:06.686Z,8.50
2019-04-23T17:09:57.884Z,9.10
2019-04-23T17:12:10.382Z,9.40
2019-04-23T17:14:44.197Z,9.97
2019-04-23T17:17:00.041Z,9.57
2019-04-23T17:19:40.163Z,9.10
2019-04-23T17:22:04.000Z,8.63
2019-04-23T17:27:10.118Z,9.73
2019-04-23T17:29:38.519Z,9.40
2019-04-23T17:31:59.123Z,8.90
2019-04-23T17:37:17.716Z,10.10
2019-04-23T17:40:06.385Z,9.53
2019-04-23T17:42:29.218Z,9.10
2019-04-23T17:45:16.899Z,8.73
2019-04-23T17:47:28.564Z,9.50
2019-04-23T17:50:05.943Z,9.77
2019-04-23T17:52:28.128Z,9.13
2019-04-23T17:54:56.703Z,9.03
2019-04-23T17:57:28.234Z,9.33
2019-04-23T18:00:11.915Z,10.43
2019-04-23T18:07:34.002Z,9.03
2019-04-23T18:10:01.252Z,9.17
2019-04-23T18:12:37.626Z,9.60
2019-04-23T18:14:43.977Z,9.93
2019-04-23T18:17:26.594Z,8.80
2019-04-23T18:19:56.529Z,9.63
2019-04-23T18:22:35.599Z,9.97
2019-04-23T18:25:18.055Z,9.60
2019-04-23T18:27:38.407Z,8.00
2019-04-23T18:30:15.243Z,9.73
2019-04-23T18:40:06.846Z,8.70
2019-04-23T18:42:40.812Z,9.73
2019-04-23T18:45:18.819Z,10.60
2019-04-23T18:47:44.572Z,10.00
2019-04-23T18:50:02.153Z,9.63
2019-04-23T18:52:41.301Z,10.70
2019-04-23T18:55:09.102Z,9.53
2019-04-23T18:57:27.378Z,8.93
2019-04-23T19:05:15.147Z,9.73
2019-04-23T19:07:51.929Z,10.43
2019-04-23T19:10:31.934Z,9.60
2019-04-23T19:12:56.930Z,10.07
2019-04-23T19:15:30.068Z,9.83
2019-04-23T19:17:50.182Z,10.17
2019-04-23T19:20:38.253Z,9.80
2019-04-23T19:25:23.052Z,9.30
2019-04-23T19:30:30.496Z,9.63
2019-04-23T19:32:54.459Z,10.17
2019-04-23T19:35:40.140Z,10.20
2019-04-23T19:37:55.435Z,8.60
2019-04-23T19:40:26.318Z,9.73
2019-04-23T19:42:50.627Z,8.77
2019-04-23T19:45:16.766Z,8.43
2019-04-23T19:47:55.877Z,7.83
2019-04-23T19:50:13.027Z,7.87
2019-04-23T19:53:04.329Z,7.57
2019-04-23T19:55:12.091Z,6.43
2019-04-23T19:57:42.392Z,6.00
2019-04-23T20:00:02.778Z,5.50
2019-04-23T20:03:05.753Z,5.67
2019-04-23T20:05:00.857Z,4.80
2019-04-23T20:09:55.139Z,5.07
2019-04-23T20:12:32.140Z,5.97
2019-04-23T20:17:37.710Z,4.90
2019-04-23T20:19:56.744Z,6.67
2019-04-23T20:22:33.990Z,5.33
2019-04-23T20:25:46.361Z,4.70
2019-04-23T20:27:26.495Z,5.00
2019-04-23T20:30:13.691Z,4.17
2019-04-23T20:35:08.476Z,5.53
2019-04-23T20:37:48.954Z,4.27
2019-04-23T20:42:44.462Z,4.57
2019-04-23T20:44:59.073Z,4.83
2019-04-23T20:47:37.163Z,5.37
2019-04-23T20:52:35.132Z,5.07
2019-04-23T20:57:42.345Z,4.50
2019-04-23T21:05:08.719Z,4.70
2019-04-23T21:07:47.057Z,4.40
2019-04-23T21:10:08.851Z,4.07
2019-04-23T21:12:43.172Z,4.37
2019-04-23T21:15:05.674Z,3.80
2019-04-23T21:17:33.539Z,3.43
2019-04-23T21:19:59.782Z,4.07
2019-04-23T21:24:51.262Z,3.10
2019-04-23T21:27:41.005Z,4.07
2019-04-23T21:30:12.345Z,4.77
2019-04-23T21:32:35.413Z,3.63
2019-04-23T21:35:04.630Z,3.47
2019-04-23T21:37:34.630Z,4.03
2019-04-23T21:43:02.785Z,3.57
2019-04-23T21:45:30.507Z,3.17
2019-04-23T21:50:37.404Z,3.33
2019-04-23T21:52:54.194Z,3.30
2019-04-23T21:55:31.166Z,3.00
2019-04-23T21:57:59.887Z,3.53
2019-04-23T22:00:28.043Z,3.13
2019-04-23T22:02:59.538Z,3.33
2019-04-23T22:05:25.142Z,3.93
2019-04-23T22:08:01.675Z,3.50
2019-04-23T22:10:18.279Z,3.50
2019-04-23T22:13:02.705Z,2.90
2019-04-23T22:15:12.685Z,3.23
2019-04-23T22:17:44.816Z,3.77
2019-04-23T22:20:21.403Z,3.23
2019-04-23T22:23:08.795Z,3.40
2019-04-23T22:25:11.448Z,3.33
2019-04-23T22:27:42.292Z,3.33
2019-04-23T22:30:06.105Z,2.77
2019-04-23T22:35:07.922Z,4.53
2019-04-23T22:45:12.310Z,3.30
2019-04-23T22:47:39.438Z,3.03
2019-04-23T22:52:33.875Z,2.97
2019-04-23T22:55:02.926Z,2.97
2019-04-23T22:57:45.226Z,3.10
2019-04-23T23:00:07.990Z,2.87
2019-04-23T23:02:47.738Z,3.10
2019-04-23T23:05:10.312Z,3.07
2019-04-23T23:07:41.251Z,3.00
2019-04-23T23:10:12.928Z,3.53
2019-04-23T23:12:34.589Z,2.77
2019-04-23T23:15:01.092Z,3.30
2019-04-23T23:17:32.316Z,3.10
2019-04-23T23:20:15.201Z,2.80
2019-04-23T23:22:18.389Z,2.93
2019-04-23T23:24:56.409Z,2.50
2019-04-23T23:27:18.413Z,3.23
2019-04-23T23:30:01.194Z,3.10
2019-04-23T23:35:04.358Z,2.93
2019-04-23T23:37:13.247Z,2.70
2019-04-23T23:39:49.618Z,3.03
2019-04-23T23:44:56.233Z,2.87
2019-04-23T23:47:21.186Z,2.63
2019-04-23T23:49:49.384Z,2.90
2019-04-23T23:52:03.305Z,2.93
2019-04-23T23:54:35.723Z,3.17
2019-04-23T23:57:12.529Z,2.93
